sensor_id;sensor_type;location;lat;lon;timestamp;P1;durP1;ratioP1;P2;durP2;ratioP2
37097;SDS011;63608;49.572;12.348;2023-01-16T00:01:33;2.17;;;2.07;;
37097;SDS011;63608;49.572;12.348;2023-01-16T00:03:36;1.90;;;1.80;;
37097;SDS011;63608;49.572;12.348;2023-01-16T00:05:39;2.07;;;1.87;;
37097;SDS011;63608;49.572;12.348;2023-01-16T00:07:43;2.20;;;1.90;;
37097;SDS011;63608;49.572;12.348;2023-01-16T00:09:53;1.90;;;1.70;;
37097;SDS011;63608;49.572;12.348;2023-01-16T00:11:57;2.00;;;1.90;;
37097;SDS011;63608;49.572;12.348;2023-01-16T00:14:02;3.33;;;1.70;;
37097;SDS011;63608;49.572;12.348;2023-01-16T00:16:05;2.10;;;1.87;;
37097;SDS011;63608;49.572;12.348;2023-01-16T00:18:08;1.83;;;1.73;;
37097;SDS011;63608;49.572;12.348;2023-01-16T00:20:13;2.40;;;2.30;;
37097;SDS011;63608;49.572;12.348;2023-01-16T00:22:17;1.73;;;1.63;;
37097;SDS011;63608;49.572;12.348;2023-01-16T00:24:26;3.27;;;2.00;;
37097;SDS011;63608;49.572;12.348;2023-01-16T00:26:43;1.87;;;1.77;;
37097;SDS011;63608;49.572;12.348;2023-01-16T00:28:47;1.80;;;1.70;;
37097;SDS011;63608;49.572;12.348;2023-01-16T00:30:54;1.93;;;1.57;;
37097;SDS011;63608;49.572;12.348;2023-01-16T00:33:02;2.73;;;1.70;;
37097;SDS011;63608;49.572;12.348;2023-01-16T00:35:09;1.83;;;1.73;;
37097;SDS011;63608;49.572;12.348;2023-01-16T00:37:12;1.77;;;1.67;;
37097;SDS011;63608;49.572;12.348;2023-01-16T00:39:16;4.03;;;1.90;;
37097;SDS011;63608;49.572;12.348;2023-01-16T00:41:21;2.70;;;1.80;;
37097;SDS011;63608;49.572;12.348;2023-01-16T00:43:26;1.67;;;1.57;;
37097;SDS011;63608;49.572;12.348;2023-01-16T00:45:29;1.83;;;1.60;;
37097;SDS011;63608;49.572;12.348;2023-01-16T00:47:32;1.57;;;1.47;;
37097;SDS011;63608;49.572;12.348;2023-01-16T00:49:34;1.97;;;1.70;;
37097;SDS011;63608;49.572;12.348;2023-01-16T00:51:42;1.80;;;1.70;;
37097;SDS011;63608;49.572;12.348;2023-01-16T00:53:44;2.03;;;1.50;;
37097;SDS011;63608;49.572;12.348;2023-01-16T00:55:46;1.23;;;1.23;;
37097;SDS011;63608;49.572;12.348;2023-01-16T00:57:48;3.13;;;1.60;;
37097;SDS011;63608;49.572;12.348;2023-01-16T00:59:54;1.53;;;1.43;;
37097;SDS011;63608;49.572;12.348;2023-01-16T01:01:57;1.70;;;1.60;;
37097;SDS011;63608;49.572;12.348;2023-01-16T01:04:00;2.67;;;1.43;;
37097;SDS011;63608;49.572;12.348;2023-01-16T01:06:04;1.70;;;1.60;;
37097;SDS011;63608;49.572;12.348;2023-01-16T01:08:13;1.50;;;1.40;;
37097;SDS011;63608;49.572;12.348;2023-01-16T01:10:16;1.70;;;1.60;;
37097;SDS011;63608;49.572;12.348;2023-01-16T01:12:18;1.77;;;1.30;;
37097;SDS011;63608;49.572;12.348;2023-01-16T01:14:31;1.40;;;1.30;;
37097;SDS011;63608;49.572;12.348;2023-01-16T01:16:39;1.70;;;1.60;;
37097;SDS011;63608;49.572;12.348;2023-01-16T01:18:43;1.30;;;1.30;;
37097;SDS011;63608;49.572;12.348;2023-01-16T01:20:47;1.43;;;1.33;;
37097;SDS011;63608;49.572;12.348;2023-01-16T01:22:50;1.40;;;1.30;;
37097;SDS011;63608;49.572;12.348;2023-01-16T01:24:52;1.70;;;1.60;;
37097;SDS011;63608;49.572;12.348;2023-01-16T01:26:54;3.73;;;1.47;;
37097;SDS011;63608;49.572;12.348;2023-01-16T01:28:57;2.00;;;1.20;;
37097;SDS011;63608;49.572;12.348;2023-01-16T01:31:01;1.93;;;1.40;;
37097;SDS011;63608;49.572;12.348;2023-01-16T01:33:07;2.97;;;1.20;;
37097;SDS011;63608;49.572;12.348;2023-01-16T01:35:11;2.20;;;1.30;;
37097;SDS011;63608;49.572;12.348;2023-01-16T01:37:14;1.33;;;1.20;;
37097;SDS011;63608;49.572;12.348;2023-01-16T01:39:16;1.00;;;1.00;;
37097;SDS011;63608;49.572;12.348;2023-01-16T01:41:20;4.63;;;1.10;;
37097;SDS011;63608;49.572;12.348;2023-01-16T01:43:38;1.47;;;1.30;;
37097;SDS011;63608;49.572;12.348;2023-01-16T01:45:41;1.40;;;1.30;;
37097;SDS011;63608;49.572;12.348;2023-01-16T01:47:49;1.20;;;1.10;;
37097;SDS011;63608;49.572;12.348;2023-01-16T01:50:10;2.07;;;1.20;;
37097;SDS011;63608;49.572;12.348;2023-01-16T01:52:16;1.40;;;1.07;;
37097;SDS011;63608;49.572;12.348;2023-01-16T01:54:20;1.40;;;1.30;;
37097;SDS011;63608;49.572;12.348;2023-01-16T01:56:27;1.40;;;1.30;;
37097;SDS011;63608;49.572;12.348;2023-01-16T01:58:32;3.40;;;1.20;;
37097;SDS011;63608;49.572;12.348;2023-01-16T02:00:39;1.43;;;1.10;;
37097;SDS011;63608;49.572;12.348;2023-01-16T02:02:42;2.50;;;1.27;;
37097;SDS011;63608;49.572;12.348;2023-01-16T02:04:49;1.17;;;1.10;;
37097;SDS011;63608;49.572;12.348;2023-01-16T02:07:11;1.20;;;1.10;;
37097;SDS011;63608;49.572;12.348;2023-01-16T02:09:16;1.30;;;1.20;;
37097;SDS011;63608;49.572;12.348;2023-01-16T02:11:25;2.50;;;1.03;;
37097;SDS011;63608;49.572;12.348;2023-01-16T02:13:36;1.10;;;1.10;;
37097;SDS011;63608;49.572;12.348;2023-01-16T02:15:39;1.07;;;0.93;;
37097;SDS011;63608;49.572;12.348;2023-01-16T02:18:04;5.20;;;1.07;;
37097;SDS011;63608;49.572;12.348;2023-01-16T02:20:28;1.30;;;1.20;;
37097;SDS011;63608;49.572;12.348;2023-01-16T02:22:48;2.00;;;1.20;;
37097;SDS011;63608;49.572;12.348;2023-01-16T02:27:45;1.70;;;1.20;;
37097;SDS011;63608;49.572;12.348;2023-01-16T02:30:21;1.53;;;1.10;;
37097;SDS011;63608;49.572;12.348;2023-01-16T02:32:38;1.40;;;1.03;;
37097;SDS011;63608;49.572;12.348;2023-01-16T02:34:51;1.37;;;1.03;;
37097;SDS011;63608;49.572;12.348;2023-01-16T02:37:06;1.00;;;1.00;;
37097;SDS011;63608;49.572;12.348;2023-01-16T02:39:18;3.13;;;1.00;;
37097;SDS011;63608;49.572;12.348;2023-01-16T02:41:29;1.23;;;1.07;;
37097;SDS011;63608;49.572;12.348;2023-01-16T02:43:43;1.40;;;1.30;;
37097;SDS011;63608;49.572;12.348;2023-01-16T02:45:52;1.03;;;1.03;;
37097;SDS011;63608;49.572;12.348;2023-01-16T02:48:02;2.60;;;1.10;;
37097;SDS011;63608;49.572;12.348;2023-01-16T02:50:09;1.50;;;1.17;;
37097;SDS011;63608;49.572;12.348;2023-01-16T02:52:19;2.20;;;1.27;;
37097;SDS011;63608;49.572;12.348;2023-01-16T02:54:27;0.90;;;0.90;;
37097;SDS011;63608;49.572;12.348;2023-01-16T02:56:35;2.13;;;1.07;;
37097;SDS011;63608;49.572;12.348;2023-01-16T02:58:42;0.90;;;0.90;;
37097;SDS011;63608;49.572;12.348;2023-01-16T03:00:49;1.17;;;1.13;;
37097;SDS011;63608;49.572;12.348;2023-01-16T03:02:52;1.93;;;1.00;;
37097;SDS011;63608;49.572;12.348;2023-01-16T03:05:06;1.37;;;1.10;;
37097;SDS011;63608;49.572;12.348;2023-01-16T03:09:56;1.43;;;1.27;;
37097;SDS011;63608;49.572;12.348;2023-01-16T03:12:14;1.20;;;1.10;;
37097;SDS011;63608;49.572;12.348;2023-01-16T03:14:27;1.53;;;1.07;;
37097;SDS011;63608;49.572;12.348;2023-01-16T03:16:35;1.40;;;1.30;;
37097;SDS011;63608;49.572;12.348;2023-01-16T03:18:40;2.50;;;1.10;;
37097;SDS011;63608;49.572;12.348;2023-01-16T03:20:50;1.10;;;0.97;;
37097;SDS011;63608;49.572;12.348;2023-01-16T03:23:00;2.50;;;1.00;;
37097;SDS011;63608;49.572;12.348;2023-01-16T03:25:14;3.17;;;1.00;;
37097;SDS011;63608;49.572;12.348;2023-01-16T03:27:25;1.90;;;1.10;;
37097;SDS011;63608;49.572;12.348;2023-01-16T03:29:38;1.17;;;0.93;;
37097;SDS011;63608;49.572;12.348;2023-01-16T03:31:45;1.10;;;1.00;;
37097;SDS011;63608;49.572;12.348;2023-01-16T03:33:53;1.10;;;1.00;;
37097;SDS011;63608;49.572;12.348;2023-01-16T03:36:06;1.10;;;1.00;;
37097;SDS011;63608;49.572;12.348;2023-01-16T03:38:10;1.00;;;1.00;;
37097;SDS011;63608;49.572;12.348;2023-01-16T03:40:14;1.07;;;1.07;;
37097;SDS011;63608;49.572;12.348;2023-01-16T03:42:21;0.90;;;0.90;;
37097;SDS011;63608;49.572;12.348;2023-01-16T03:44:30;1.00;;;1.00;;
37097;SDS011;63608;49.572;12.348;2023-01-16T03:46:37;1.13;;;1.03;;
37097;SDS011;63608;49.572;12.348;2023-01-16T03:48:42;1.23;;;1.13;;
37097;SDS011;63608;49.572;12.348;2023-01-16T03:50:50;0.97;;;0.97;;
37097;SDS011;63608;49.572;12.348;2023-01-16T03:53:02;1.90;;;1.10;;
37097;SDS011;63608;49.572;12.348;2023-01-16T03:55:17;1.20;;;1.10;;
37097;SDS011;63608;49.572;12.348;2023-01-16T03:57:27;1.70;;;0.97;;
37097;SDS011;63608;49.572;12.348;2023-01-16T03:59:32;0.90;;;0.90;;
37097;SDS011;63608;49.572;12.348;2023-01-16T04:01:43;1.70;;;1.20;;
37097;SDS011;63608;49.572;12.348;2023-01-16T04:03:53;1.80;;;1.10;;
37097;SDS011;63608;49.572;12.348;2023-01-16T04:06:01;2.53;;;1.33;;
37097;SDS011;63608;49.572;12.348;2023-01-16T04:08:12;1.10;;;1.10;;
37097;SDS011;63608;49.572;12.348;2023-01-16T04:10:19;1.40;;;1.00;;
37097;SDS011;63608;49.572;12.348;2023-01-16T04:12:25;1.20;;;1.20;;
37097;SDS011;63608;49.572;12.348;2023-01-16T04:14:33;1.00;;;1.00;;
37097;SDS011;63608;49.572;12.348;2023-01-16T04:16:36;1.83;;;1.00;;
37097;SDS011;63608;49.572;12.348;2023-01-16T04:18:39;1.83;;;1.17;;
37097;SDS011;63608;49.572;12.348;2023-01-16T04:20:43;1.70;;;1.13;;
37097;SDS011;63608;49.572;12.348;2023-01-16T04:22:47;1.53;;;1.10;;
37097;SDS011;63608;49.572;12.348;2023-01-16T04:24:52;1.57;;;1.00;;
37097;SDS011;63608;49.572;12.348;2023-01-16T04:26:59;1.00;;;1.00;;
37097;SDS011;63608;49.572;12.348;2023-01-16T04:29:02;1.97;;;1.30;;
37097;SDS011;63608;49.572;12.348;2023-01-16T04:31:04;1.80;;;1.10;;
37097;SDS011;63608;49.572;12.348;2023-01-16T04:33:09;1.20;;;1.20;;
37097;SDS011;63608;49.572;12.348;2023-01-16T04:35:12;1.27;;;1.10;;
37097;SDS011;63608;49.572;12.348;2023-01-16T04:37:16;1.10;;;1.10;;
37097;SDS011;63608;49.572;12.348;2023-01-16T04:39:21;2.20;;;1.20;;
37097;SDS011;63608;49.572;12.348;2023-01-16T04:41:26;1.20;;;1.00;;
37097;SDS011;63608;49.572;12.348;2023-01-16T04:43:41;1.27;;;1.03;;
37097;SDS011;63608;49.572;12.348;2023-01-16T04:45:45;0.93;;;0.93;;
37097;SDS011;63608;49.572;12.348;2023-01-16T04:47:49;1.50;;;1.13;;
37097;SDS011;63608;49.572;12.348;2023-01-16T04:49:52;2.20;;;1.03;;
37097;SDS011;63608;49.572;12.348;2023-01-16T04:51:57;1.23;;;1.10;;
37097;SDS011;63608;49.572;12.348;2023-01-16T04:54:00;1.20;;;1.10;;
37097;SDS011;63608;49.572;12.348;2023-01-16T04:56:02;1.40;;;1.30;;
37097;SDS011;63608;49.572;12.348;2023-01-16T04:58:06;1.00;;;1.00;;
37097;SDS011;63608;49.572;12.348;2023-01-16T05:00:10;2.20;;;1.40;;
37097;SDS011;63608;49.572;12.348;2023-01-16T05:02:16;1.67;;;1.57;;
37097;SDS011;63608;49.572;12.348;2023-01-16T05:04:25;2.10;;;1.40;;
37097;SDS011;63608;49.572;12.348;2023-01-16T05:06:34;2.83;;;1.73;;
37097;SDS011;63608;49.572;12.348;2023-01-16T05:08:40;1.20;;;1.10;;
37097;SDS011;63608;49.572;12.348;2023-01-16T05:10:45;1.13;;;1.13;;
37097;SDS011;63608;49.572;12.348;2023-01-16T05:12:47;1.30;;;1.20;;
37097;SDS011;63608;49.572;12.348;2023-01-16T05:15:01;1.10;;;1.00;;
37097;SDS011;63608;49.572;12.348;2023-01-16T05:17:04;1.40;;;1.30;;
37097;SDS011;63608;49.572;12.348;2023-01-16T05:19:07;1.40;;;1.30;;
37097;SDS011;63608;49.572;12.348;2023-01-16T05:21:10;1.27;;;1.17;;
37097;SDS011;63608;49.572;12.348;2023-01-16T05:23:16;1.23;;;1.13;;
37097;SDS011;63608;49.572;12.348;2023-01-16T05:25:18;2.07;;;1.40;;
37097;SDS011;63608;49.572;12.348;2023-01-16T05:27:21;1.40;;;1.30;;
37097;SDS011;63608;49.572;12.348;2023-01-16T05:29:31;1.63;;;1.33;;
37097;SDS011;63608;49.572;12.348;2023-01-16T05:31:35;1.77;;;1.27;;
37097;SDS011;63608;49.572;12.348;2023-01-16T05:33:37;2.47;;;1.67;;
37097;SDS011;63608;49.572;12.348;2023-01-16T05:35:39;1.57;;;1.47;;
37097;SDS011;63608;49.572;12.348;2023-01-16T05:37:52;1.50;;;1.40;;
37097;SDS011;63608;49.572;12.348;2023-01-16T05:39:55;1.60;;;1.50;;
37097;SDS011;63608;49.572;12.348;2023-01-16T05:41:58;1.40;;;1.40;;
37097;SDS011;63608;49.572;12.348;2023-01-16T05:44:21;1.57;;;1.47;;
37097;SDS011;63608;49.572;12.348;2023-01-16T05:46:24;5.90;;;3.10;;
37097;SDS011;63608;49.572;12.348;2023-01-16T05:48:28;2.90;;;2.60;;
37097;SDS011;63608;49.572;12.348;2023-01-16T05:50:31;3.53;;;2.90;;
37097;SDS011;63608;49.572;12.348;2023-01-16T05:52:33;1.63;;;1.53;;
37097;SDS011;63608;49.572;12.348;2023-01-16T05:54:37;1.87;;;1.30;;
37097;SDS011;63608;49.572;12.348;2023-01-16T05:56:40;2.00;;;1.03;;
37097;SDS011;63608;49.572;12.348;2023-01-16T05:58:43;1.30;;;1.20;;
37097;SDS011;63608;49.572;12.348;2023-01-16T06:00:46;2.27;;;2.17;;
37097;SDS011;63608;49.572;12.348;2023-01-16T06:02:48;1.60;;;1.40;;
37097;SDS011;63608;49.572;12.348;2023-01-16T06:04:56;1.33;;;1.00;;
37097;SDS011;63608;49.572;12.348;2023-01-16T06:06:58;1.50;;;1.40;;
37097;SDS011;63608;49.572;12.348;2023-01-16T06:09:03;3.47;;;3.27;;
37097;SDS011;63608;49.572;12.348;2023-01-16T06:11:06;3.13;;;2.10;;
37097;SDS011;63608;49.572;12.348;2023-01-16T06:13:09;2.13;;;1.70;;
37097;SDS011;63608;49.572;12.348;2023-01-16T06:15:15;2.60;;;1.20;;
37097;SDS011;63608;49.572;12.348;2023-01-16T06:17:19;2.03;;;1.00;;
37097;SDS011;63608;49.572;12.348;2023-01-16T06:19:21;2.40;;;1.20;;
37097;SDS011;63608;49.572;12.348;2023-01-16T06:21:28;1.50;;;1.10;;
37097;SDS011;63608;49.572;12.348;2023-01-16T06:23:33;1.53;;;1.23;;
37097;SDS011;63608;49.572;12.348;2023-01-16T06:25:37;1.20;;;1.20;;
37097;SDS011;63608;49.572;12.348;2023-01-16T06:27:39;1.67;;;1.20;;
37097;SDS011;63608;49.572;12.348;2023-01-16T06:29:41;1.10;;;1.10;;
37097;SDS011;63608;49.572;12.348;2023-01-16T06:31:44;2.77;;;1.50;;
37097;SDS011;63608;49.572;12.348;2023-01-16T06:33:46;1.43;;;1.30;;
37097;SDS011;63608;49.572;12.348;2023-01-16T06:35:48;2.07;;;1.90;;
37097;SDS011;63608;49.572;12.348;2023-01-16T06:37:54;2.10;;;2.00;;
37097;SDS011;63608;49.572;12.348;2023-01-16T06:39:56;1.93;;;1.83;;
37097;SDS011;63608;49.572;12.348;2023-01-16T06:42:01;2.23;;;1.63;;
37097;SDS011;63608;49.572;12.348;2023-01-16T06:44:05;1.70;;;1.60;;
37097;SDS011;63608;49.572;12.348;2023-01-16T06:46:08;1.90;;;1.40;;
37097;SDS011;63608;49.572;12.348;2023-01-16T06:48:13;1.50;;;1.40;;
37097;SDS011;63608;49.572;12.348;2023-01-16T06:50:16;1.53;;;1.40;;
37097;SDS011;63608;49.572;12.348;2023-01-16T06:54:54;2.43;;;2.30;;
37097;SDS011;63608;49.572;12.348;2023-01-16T06:56:58;1.97;;;1.87;;
37097;SDS011;63608;49.572;12.348;2023-01-16T06:59:03;3.20;;;2.20;;
37097;SDS011;63608;49.572;12.348;2023-01-16T07:01:06;2.10;;;2.00;;
37097;SDS011;63608;49.572;12.348;2023-01-16T07:03:09;3.37;;;1.67;;
37097;SDS011;63608;49.572;12.348;2023-01-16T07:05:11;2.63;;;2.43;;
37097;SDS011;63608;49.572;12.348;2023-01-16T07:07:13;3.17;;;1.83;;
37097;SDS011;63608;49.572;12.348;2023-01-16T07:09:16;4.30;;;1.63;;
37097;SDS011;63608;49.572;12.348;2023-01-16T07:11:24;1.60;;;1.50;;
37097;SDS011;63608;49.572;12.348;2023-01-16T07:13:26;1.80;;;1.60;;
37097;SDS011;63608;49.572;12.348;2023-01-16T07:15:29;2.97;;;2.43;;
37097;SDS011;63608;49.572;12.348;2023-01-16T07:17:49;7.30;;;6.53;;
37097;SDS011;63608;49.572;12.348;2023-01-16T07:20:09;7.50;;;6.40;;
37097;SDS011;63608;49.572;12.348;2023-01-16T07:22:32;5.30;;;4.80;;
37097;SDS011;63608;49.572;12.348;2023-01-16T07:24:44;4.20;;;3.37;;
37097;SDS011;63608;49.572;12.348;2023-01-16T07:26:49;2.30;;;2.20;;
37097;SDS011;63608;49.572;12.348;2023-01-16T07:28:54;1.80;;;1.70;;
37097;SDS011;63608;49.572;12.348;2023-01-16T07:30:57;1.80;;;1.70;;
37097;SDS011;63608;49.572;12.348;2023-01-16T07:33:01;2.90;;;2.70;;
37097;SDS011;63608;49.572;12.348;2023-01-16T07:35:05;6.00;;;2.97;;
37097;SDS011;63608;49.572;12.348;2023-01-16T07:37:11;1.87;;;1.70;;
37097;SDS011;63608;49.572;12.348;2023-01-16T07:39:15;3.10;;;2.50;;
37097;SDS011;63608;49.572;12.348;2023-01-16T07:41:19;1.80;;;1.70;;
37097;SDS011;63608;49.572;12.348;2023-01-16T07:43:23;2.43;;;2.30;;
37097;SDS011;63608;49.572;12.348;2023-01-16T07:45:26;3.20;;;2.80;;
37097;SDS011;63608;49.572;12.348;2023-01-16T07:47:28;1.93;;;1.80;;
37097;SDS011;63608;49.572;12.348;2023-01-16T07:49:36;2.07;;;1.97;;
37097;SDS011;63608;49.572;12.348;2023-01-16T07:51:39;1.60;;;1.50;;
37097;SDS011;63608;49.572;12.348;2023-01-16T07:53:44;2.50;;;2.40;;
37097;SDS011;63608;49.572;12.348;2023-01-16T07:55:46;1.40;;;1.30;;
37097;SDS011;63608;49.572;12.348;2023-01-16T07:57:50;1.40;;;1.30;;
37097;SDS011;63608;49.572;12.348;2023-01-16T07:59:54;2.80;;;2.60;;
37097;SDS011;63608;49.572;12.348;2023-01-16T08:04:21;1.50;;;1.50;;
37097;SDS011;63608;49.572;12.348;2023-01-16T08:06:23;3.63;;;1.40;;
37097;SDS011;63608;49.572;12.348;2023-01-16T08:08:26;1.57;;;1.30;;
37097;SDS011;63608;49.572;12.348;2023-01-16T08:10:29;1.10;;;1.10;;
37097;SDS011;63608;49.572;12.348;2023-01-16T08:12:32;1.53;;;1.43;;
37097;SDS011;63608;49.572;12.348;2023-01-16T08:14:34;3.43;;;1.30;;
37097;SDS011;63608;49.572;12.348;2023-01-16T08:16:39;1.63;;;1.20;;
37097;SDS011;63608;49.572;12.348;2023-01-16T08:18:42;1.37;;;1.17;;
37097;SDS011;63608;49.572;12.348;2023-01-16T08:20:48;1.27;;;1.27;;
37097;SDS011;63608;49.572;12.348;2023-01-16T08:22:51;1.30;;;1.20;;
37097;SDS011;63608;49.572;12.348;2023-01-16T08:24:55;1.37;;;1.23;;
37097;SDS011;63608;49.572;12.348;2023-01-16T08:26:58;1.10;;;1.10;;
37097;SDS011;63608;49.572;12.348;2023-01-16T08:29:06;1.00;;;1.00;;
37097;SDS011;63608;49.572;12.348;2023-01-16T08:31:11;2.10;;;1.10;;
37097;SDS011;63608;49.572;12.348;2023-01-16T08:33:17;1.23;;;1.13;;
37097;SDS011;63608;49.572;12.348;2023-01-16T08:35:19;1.93;;;1.07;;
37097;SDS011;63608;49.572;12.348;2023-01-16T08:37:21;1.67;;;1.07;;
37097;SDS011;63608;49.572;12.348;2023-01-16T08:39:24;1.37;;;1.20;;
37097;SDS011;63608;49.572;12.348;2023-01-16T08:41:27;1.37;;;1.10;;
37097;SDS011;63608;49.572;12.348;2023-01-16T08:43:48;1.20;;;1.10;;
37097;SDS011;63608;49.572;12.348;2023-01-16T08:46:13;1.20;;;1.20;;
37097;SDS011;63608;49.572;12.348;2023-01-16T08:48:40;1.17;;;1.10;;
37097;SDS011;63608;49.572;12.348;2023-01-16T08:51:13;1.70;;;1.60;;
37097;SDS011;63608;49.572;12.348;2023-01-16T08:53:41;1.13;;;1.03;;
37097;SDS011;63608;49.572;12.348;2023-01-16T08:55:51;1.10;;;1.00;;
37097;SDS011;63608;49.572;12.348;2023-01-16T08:58:08;1.20;;;1.10;;
37097;SDS011;63608;49.572;12.348;2023-01-16T09:00:10;1.30;;;1.20;;
37097;SDS011;63608;49.572;12.348;2023-01-16T09:02:15;1.10;;;1.10;;
37097;SDS011;63608;49.572;12.348;2023-01-16T09:04:21;1.03;;;1.03;;
37097;SDS011;63608;49.572;12.348;2023-01-16T09:06:25;1.40;;;1.30;;
37097;SDS011;63608;49.572;12.348;2023-01-16T09:08:29;1.10;;;1.00;;
37097;SDS011;63608;49.572;12.348;2023-01-16T09:10:35;1.00;;;1.00;;
37097;SDS011;63608;49.572;12.348;2023-01-16T09:12:39;1.10;;;1.10;;
37097;SDS011;63608;49.572;12.348;2023-01-16T09:15:00;1.10;;;1.00;;
37097;SDS011;63608;49.572;12.348;2023-01-16T09:17:07;1.20;;;1.10;;
37097;SDS011;63608;49.572;12.348;2023-01-16T09:19:14;1.73;;;1.13;;
37097;SDS011;63608;49.572;12.348;2023-01-16T09:21:19;1.17;;;1.03;;
37097;SDS011;63608;49.572;12.348;2023-01-16T09:23:23;1.10;;;1.00;;
37097;SDS011;63608;49.572;12.348;2023-01-16T09:25:37;1.27;;;1.10;;
37097;SDS011;63608;49.572;12.348;2023-01-16T09:27:40;1.30;;;1.20;;
37097;SDS011;63608;49.572;12.348;2023-01-16T09:29:47;1.20;;;1.10;;
37097;SDS011;63608;49.572;12.348;2023-01-16T09:31:50;1.27;;;1.17;;
37097;SDS011;63608;49.572;12.348;2023-01-16T09:33:59;1.20;;;1.20;;
37097;SDS011;63608;49.572;12.348;2023-01-16T09:36:02;1.53;;;1.30;;
37097;SDS011;63608;49.572;12.348;2023-01-16T09:38:08;1.10;;;1.10;;
37097;SDS011;63608;49.572;12.348;2023-01-16T09:40:11;1.27;;;1.10;;
37097;SDS011;63608;49.572;12.348;2023-01-16T09:45:02;2.23;;;1.00;;
37097;SDS011;63608;49.572;12.348;2023-01-16T09:47:08;1.20;;;1.10;;
37097;SDS011;63608;49.572;12.348;2023-01-16T09:49:15;2.30;;;1.20;;
37097;SDS011;63608;49.572;12.348;2023-01-16T09:51:26;1.30;;;1.20;;
37097;SDS011;63608;49.572;12.348;2023-01-16T09:53:37;1.50;;;1.40;;
37097;SDS011;63608;49.572;12.348;2023-01-16T09:56:11;1.00;;;1.00;;
37097;SDS011;63608;49.572;12.348;2023-01-16T09:58:31;1.10;;;1.10;;
37097;SDS011;63608;49.572;12.348;2023-01-16T10:00:38;1.20;;;1.10;;
37097;SDS011;63608;49.572;12.348;2023-01-16T10:02:41;1.13;;;1.13;;
37097;SDS011;63608;49.572;12.348;2023-01-16T10:04:43;2.50;;;1.50;;
37097;SDS011;63608;49.572;12.348;2023-01-16T10:06:50;1.50;;;1.40;;
37097;SDS011;63608;49.572;12.348;2023-01-16T10:09:04;1.73;;;1.30;;
37097;SDS011;63608;49.572;12.348;2023-01-16T10:11:12;2.20;;;2.00;;
37097;SDS011;63608;49.572;12.348;2023-01-16T10:13:33;1.83;;;1.20;;
37097;SDS011;63608;49.572;12.348;2023-01-16T10:15:56;1.63;;;1.30;;
37097;SDS011;63608;49.572;12.348;2023-01-16T10:18:19;1.40;;;1.30;;
37097;SDS011;63608;49.572;12.348;2023-01-16T10:20:35;7.70;;;4.50;;
37097;SDS011;63608;49.572;12.348;2023-01-16T10:22:50;1.57;;;1.40;;
37097;SDS011;63608;49.572;12.348;2023-01-16T10:25:04;1.87;;;1.77;;
37097;SDS011;63608;49.572;12.348;2023-01-16T10:27:16;1.80;;;1.70;;
37097;SDS011;63608;49.572;12.348;2023-01-16T10:29:22;1.33;;;1.23;;
37097;SDS011;63608;49.572;12.348;2023-01-16T10:31:27;1.83;;;1.50;;
37097;SDS011;63608;49.572;12.348;2023-01-16T10:33:33;3.50;;;3.20;;
37097;SDS011;63608;49.572;12.348;2023-01-16T10:35:41;1.43;;;1.30;;
37097;SDS011;63608;49.572;12.348;2023-01-16T10:37:44;1.13;;;1.03;;
37097;SDS011;63608;49.572;12.348;2023-01-16T10:39:52;2.43;;;1.00;;
37097;SDS011;63608;49.572;12.348;2023-01-16T10:41:57;1.10;;;1.00;;
37097;SDS011;63608;49.572;12.348;2023-01-16T10:44:30;1.00;;;0.93;;
37097;SDS011;63608;49.572;12.348;2023-01-16T10:46:49;0.90;;;0.90;;
37097;SDS011;63608;49.572;12.348;2023-01-16T10:49:09;0.90;;;0.90;;
37097;SDS011;63608;49.572;12.348;2023-01-16T10:51:30;0.90;;;0.90;;
37097;SDS011;63608;49.572;12.348;2023-01-16T10:53:38;2.03;;;1.80;;
37097;SDS011;63608;49.572;12.348;2023-01-16T10:55:46;1.27;;;1.13;;
37097;SDS011;63608;49.572;12.348;2023-01-16T10:57:52;1.30;;;1.20;;
37097;SDS011;63608;49.572;12.348;2023-01-16T10:59:58;11.70;;;6.90;;
37097;SDS011;63608;49.572;12.348;2023-01-16T11:02:11;23.07;;;11.67;;
37097;SDS011;63608;49.572;12.348;2023-01-16T11:04:19;13.43;;;6.47;;
37097;SDS011;63608;49.572;12.348;2023-01-16T11:06:22;1.00;;;1.00;;
37097;SDS011;63608;49.572;12.348;2023-01-16T11:08:29;0.93;;;0.83;;
37097;SDS011;63608;49.572;12.348;2023-01-16T11:10:34;1.77;;;1.60;;
37097;SDS011;63608;49.572;12.348;2023-01-16T11:12:37;1.40;;;1.30;;
37097;SDS011;63608;49.572;12.348;2023-01-16T11:14:58;2.73;;;2.23;;
37097;SDS011;63608;49.572;12.348;2023-01-16T11:17:23;2.20;;;2.00;;
37097;SDS011;63608;49.572;12.348;2023-01-16T11:19:44;2.20;;;2.10;;
37097;SDS011;63608;49.572;12.348;2023-01-16T11:21:49;2.60;;;1.60;;
37097;SDS011;63608;49.572;12.348;2023-01-16T11:23:56;1.77;;;1.13;;
37097;SDS011;63608;49.572;12.348;2023-01-16T11:25:59;1.03;;;0.93;;
37097;SDS011;63608;49.572;12.348;2023-01-16T11:28:04;1.20;;;1.10;;
37097;SDS011;63608;49.572;12.348;2023-01-16T11:30:14;1.00;;;1.00;;
37097;SDS011;63608;49.572;12.348;2023-01-16T11:32:20;0.90;;;0.90;;
37097;SDS011;63608;49.572;12.348;2023-01-16T11:34:25;1.93;;;1.10;;
37097;SDS011;63608;49.572;12.348;2023-01-16T11:36:30;1.67;;;1.20;;
37097;SDS011;63608;49.572;12.348;2023-01-16T11:38:45;2.13;;;0.90;;
37097;SDS011;63608;49.572;12.348;2023-01-16T11:40:50;1.50;;;1.40;;
37097;SDS011;63608;49.572;12.348;2023-01-16T11:42:53;2.60;;;1.07;;
37097;SDS011;63608;49.572;12.348;2023-01-16T11:45:22;1.20;;;1.10;;
37097;SDS011;63608;49.572;12.348;2023-01-16T11:47:46;0.97;;;0.87;;
37097;SDS011;63608;49.572;12.348;2023-01-16T11:49:53;2.30;;;0.90;;
37097;SDS011;63608;49.572;12.348;2023-01-16T11:51:57;1.00;;;1.00;;
37097;SDS011;63608;49.572;12.348;2023-01-16T11:54:05;1.00;;;1.00;;
37097;SDS011;63608;49.572;12.348;2023-01-16T11:58:52;1.10;;;0.83;;
37097;SDS011;63608;49.572;12.348;2023-01-16T12:01:25;1.23;;;1.10;;
37097;SDS011;63608;49.572;12.348;2023-01-16T12:03:57;3.17;;;0.90;;
37097;SDS011;63608;49.572;12.348;2023-01-16T12:06:07;1.00;;;0.90;;
37097;SDS011;63608;49.572;12.348;2023-01-16T12:08:17;0.90;;;0.80;;
37097;SDS011;63608;49.572;12.348;2023-01-16T12:13:07;1.20;;;0.90;;
37097;SDS011;63608;49.572;12.348;2023-01-16T12:15:29;2.13;;;1.00;;
37097;SDS011;63608;49.572;12.348;2023-01-16T12:17:46;1.33;;;0.90;;
37097;SDS011;63608;49.572;12.348;2023-01-16T12:20:04;0.60;;;0.60;;
37097;SDS011;63608;49.572;12.348;2023-01-16T12:22:14;0.97;;;0.70;;
37097;SDS011;63608;49.572;12.348;2023-01-16T12:24:26;1.73;;;1.00;;
37097;SDS011;63608;49.572;12.348;2023-01-16T12:26:34;2.20;;;0.90;;
37097;SDS011;63608;49.572;12.348;2023-01-16T12:28:45;0.70;;;0.70;;
37097;SDS011;63608;49.572;12.348;2023-01-16T12:31:05;1.53;;;1.00;;
37097;SDS011;63608;49.572;12.348;2023-01-16T12:33:23;1.40;;;0.90;;
37097;SDS011;63608;49.572;12.348;2023-01-16T12:35:38;1.30;;;1.30;;
37097;SDS011;63608;49.572;12.348;2023-01-16T12:37:50;1.03;;;1.03;;
37097;SDS011;63608;49.572;12.348;2023-01-16T12:40:01;1.70;;;1.30;;
37097;SDS011;63608;49.572;12.348;2023-01-16T12:42:15;1.37;;;1.00;;
37097;SDS011;63608;49.572;12.348;2023-01-16T12:44:46;0.70;;;0.70;;
37097;SDS011;63608;49.572;12.348;2023-01-16T12:46:59;1.73;;;0.90;;
37097;SDS011;63608;49.572;12.348;2023-01-16T12:49:17;1.57;;;0.80;;
37097;SDS011;63608;49.572;12.348;2023-01-16T12:51:35;1.63;;;0.80;;
37097;SDS011;63608;49.572;12.348;2023-01-16T12:53:53;1.43;;;1.00;;
37097;SDS011;63608;49.572;12.348;2023-01-16T12:56:16;0.70;;;0.70;;
37097;SDS011;63608;49.572;12.348;2023-01-16T12:58:35;0.80;;;0.80;;